createdAt,value
2022-11-04T00:00:16.793Z,22.60
2022-11-04T00:01:16.876Z,21.40
2022-11-04T00:02:17.063Z,20.10
2022-11-04T00:03:17.136Z,21.70
2022-11-04T00:04:17.280Z,19.30
2022-11-04T00:05:17.427Z,20.60
2022-11-04T00:06:17.557Z,18.80
2022-11-04T00:07:17.699Z,19.30
2022-11-04T00:08:17.851Z,21.70
2022-11-04T00:09:18.010Z,22.20
2022-11-04T00:10:18.154Z,19.30
2022-11-04T00:11:18.291Z,21.00
2022-11-04T00:12:18.441Z,21.80
2022-11-04T00:13:18.588Z,19.30
2022-11-04T00:14:18.745Z,17.50
2022-11-04T00:15:18.907Z,21.70
2022-11-04T00:16:19.048Z,21.50
2022-11-04T00:17:19.232Z,19.50
2022-11-04T00:18:19.360Z,18.10
2022-11-04T00:19:19.557Z,20.20
2022-11-04T00:20:19.727Z,20.00
2022-11-04T00:21:19.877Z,23.40
2022-11-04T00:22:20.037Z,21.00
2022-11-04T00:23:20.198Z,18.30
2022-11-04T00:24:20.367Z,23.80
2022-11-04T00:25:20.517Z,21.90
2022-11-04T00:26:20.662Z,21.60
2022-11-04T00:27:20.798Z,21.20
2022-11-04T00:28:20.945Z,19.30
2022-11-04T00:29:21.121Z,20.30
2022-11-04T00:30:21.267Z,20.60
2022-11-04T00:31:21.420Z,22.60
2022-11-04T00:32:21.563Z,18.70
2022-11-04T00:33:21.720Z,16.70
2022-11-04T00:34:21.874Z,21.50
2022-11-04T00:35:22.025Z,20.50
2022-11-04T00:36:22.164Z,20.60
2022-11-04T00:37:22.313Z,21.70
2022-11-04T00:38:22.453Z,19.40
2022-11-04T00:39:22.623Z,19.00
2022-11-04T00:40:22.787Z,23.90
2022-11-04T00:41:22.948Z,20.50
2022-11-04T00:42:23.100Z,20.90
2022-11-04T00:43:23.243Z,21.20
2022-11-04T00:44:23.444Z,23.70
2022-11-04T00:45:23.584Z,17.70
2022-11-04T00:46:23.726Z,20.80
2022-11-04T00:47:23.872Z,22.70
2022-11-04T00:48:24.017Z,24.90
2022-11-04T00:49:24.212Z,21.00
2022-11-04T00:50:24.358Z,23.20
2022-11-04T00:51:24.505Z,21.30
2022-11-04T00:52:24.651Z,21.90
2022-11-04T00:53:24.801Z,19.50
2022-11-04T00:54:24.978Z,19.30
2022-11-04T00:55:25.167Z,23.00
2022-11-04T00:56:25.314Z,20.40
2022-11-04T00:57:25.473Z,23.40
2022-11-04T00:58:25.619Z,22.10
2022-11-04T00:59:25.779Z,22.80
2022-11-04T01:00:25.923Z,24.70
2022-11-04T01:01:26.243Z,22.40
2022-11-04T01:02:33.530Z,21.50
2022-11-04T01:03:26.343Z,24.90
2022-11-04T01:04:26.521Z,23.90
2022-11-04T01:05:26.657Z,22.90
2022-11-04T01:06:26.819Z,21.70
2022-11-04T01:07:26.957Z,25.90
2022-11-04T01:08:27.106Z,23.50
2022-11-04T01:09:27.296Z,22.30
2022-11-04T01:10:27.456Z,27.10
2022-11-04T01:11:27.633Z,21.80
2022-11-04T01:12:27.804Z,23.60
2022-11-04T01:13:28.338Z,25.90
2022-11-04T01:14:28.150Z,24.50
2022-11-04T01:15:28.321Z,21.70
2022-11-04T01:17:28.618Z,19.70
2022-11-04T01:18:28.779Z,23.50
2022-11-04T01:19:28.966Z,22.50
2022-11-04T01:20:29.113Z,25.10
2022-11-04T01:21:29.282Z,25.60
2022-11-04T01:22:29.438Z,24.70
2022-11-04T01:23:29.604Z,23.80
2022-11-04T01:24:29.762Z,26.80
2022-11-04T01:25:29.840Z,24.50
2022-11-04T01:26:29.996Z,21.30
2022-11-04T01:27:30.151Z,24.50
2022-11-04T01:28:30.306Z,19.80
2022-11-04T01:29:30.483Z,22.90
2022-11-04T01:30:30.656Z,22.90
2022-11-04T01:31:30.792Z,23.80
2022-11-04T01:32:30.946Z,24.70
2022-11-04T01:33:31.100Z,27.40
2022-11-04T01:34:31.263Z,27.40
2022-11-04T01:35:31.411Z,23.20
2022-11-04T01:36:31.565Z,22.90
2022-11-04T01:37:31.699Z,26.20
2022-11-04T01:38:31.859Z,23.20
2022-11-04T01:39:32.018Z,21.70
2022-11-04T01:40:32.167Z,27.60
2022-11-04T01:41:32.324Z,26.10
2022-11-04T01:42:32.473Z,25.00
2022-11-04T01:43:32.625Z,23.70
2022-11-04T01:44:32.870Z,24.00
2022-11-04T01:45:32.902Z,26.80
2022-11-04T01:46:33.049Z,21.00
2022-11-04T01:47:33.198Z,22.50
2022-11-04T01:48:33.338Z,25.10
2022-11-04T01:49:33.635Z,25.50
2022-11-04T01:50:33.656Z,26.00
2022-11-04T01:51:33.807Z,26.30
2022-11-04T01:52:33.952Z,26.30
2022-11-04T01:53:34.107Z,27.20
2022-11-04T01:54:34.260Z,22.50
2022-11-04T01:55:34.415Z,27.20
2022-11-04T01:56:34.569Z,24.70
2022-11-04T01:57:34.697Z,25.20
2022-11-04T01:58:34.844Z,25.60
2022-11-04T01:59:35.007Z,27.70
2022-11-04T02:00:35.144Z,24.20
2022-11-04T02:01:35.415Z,23.10
2022-11-04T02:02:35.494Z,26.30
2022-11-04T02:03:35.533Z,24.90
2022-11-04T02:04:35.730Z,26.10
2022-11-04T02:05:35.877Z,23.40
2022-11-04T02:06:36.047Z,25.90
2022-11-04T02:07:36.210Z,21.10
2022-11-04T02:08:36.350Z,24.30
2022-11-04T02:09:36.524Z,26.20
2022-11-04T02:10:36.680Z,23.90
2022-11-04T02:11:36.861Z,26.60
2022-11-04T02:12:37.039Z,25.90
2022-11-04T02:13:37.279Z,25.80
2022-11-04T02:14:37.370Z,22.40
2022-11-04T02:15:37.645Z,21.60
2022-11-04T02:16:37.689Z,25.60
2022-11-04T02:17:37.840Z,23.90
2022-11-04T02:18:38.110Z,23.20
2022-11-04T02:19:38.201Z,22.90
2022-11-04T02:20:38.363Z,24.20
2022-11-04T02:21:38.538Z,25.60
2022-11-04T02:22:38.699Z,19.60
2022-11-04T02:23:38.867Z,23.70
2022-11-04T02:24:39.077Z,24.10
2022-11-04T02:25:39.122Z,23.40
2022-11-04T02:26:39.291Z,25.60
2022-11-04T02:27:39.438Z,22.80
2022-11-04T02:28:39.629Z,24.80
2022-11-04T02:29:39.896Z,26.50
2022-11-04T02:30:39.938Z,25.70
2022-11-04T02:31:40.117Z,26.70
2022-11-04T02:32:40.277Z,24.60
2022-11-04T02:33:40.432Z,22.10
2022-11-04T02:34:41.545Z,22.90
2022-11-04T02:35:40.702Z,27.30
2022-11-04T02:36:40.927Z,23.40
2022-11-04T02:37:41.009Z,24.00
2022-11-04T02:38:41.157Z,19.50
2022-11-04T02:39:41.939Z,26.40
2022-11-04T02:40:41.461Z,24.20
2022-11-04T02:41:41.601Z,26.10
2022-11-04T02:42:41.764Z,28.60
2022-11-04T02:43:41.922Z,22.70
2022-11-04T02:44:42.106Z,26.20
2022-11-04T02:45:42.263Z,27.80
2022-11-04T02:46:42.429Z,23.70
2022-11-04T02:47:42.594Z,25.40
2022-11-04T02:48:42.760Z,28.70
2022-11-04T02:49:42.923Z,21.80
2022-11-04T02:50:43.086Z,25.80
2022-11-04T02:51:43.239Z,25.80
2022-11-04T02:52:48.569Z,22.50
2022-11-04T02:53:44.496Z,24.40
2022-11-04T02:54:43.677Z,26.20
2022-11-04T02:55:43.821Z,22.30
2022-11-04T02:56:43.995Z,24.10
2022-11-04T02:57:44.150Z,23.10
2022-11-04T02:58:44.304Z,22.10
2022-11-04T02:59:44.479Z,26.50
2022-11-04T03:00:44.645Z,26.10
2022-11-04T03:01:44.901Z,25.60
2022-11-04T03:02:45.012Z,23.30
2022-11-04T03:03:45.179Z,25.10
2022-11-04T03:04:45.351Z,24.60
2022-11-04T03:05:45.498Z,19.90
2022-11-04T03:06:45.658Z,22.70
2022-11-04T03:07:45.816Z,25.80
2022-11-04T03:08:45.967Z,26.20
2022-11-04T03:09:46.136Z,23.60
2022-11-04T03:10:46.297Z,23.20
2022-11-04T03:11:46.463Z,26.40
2022-11-04T03:12:46.615Z,26.90
2022-11-04T03:13:46.765Z,26.00
2022-11-04T03:14:46.958Z,25.00
2022-11-04T03:15:47.120Z,28.30
2022-11-04T03:16:47.285Z,22.20
2022-11-04T03:17:47.430Z,23.90
2022-11-04T03:18:47.586Z,25.90
2022-11-04T03:19:47.764Z,24.30
2022-11-04T03:20:47.923Z,24.20
2022-11-04T03:21:48.071Z,21.40
2022-11-04T03:22:48.266Z,22.20
2022-11-04T03:23:48.413Z,24.10
2022-11-04T03:24:48.593Z,23.50
2022-11-04T03:25:48.733Z,24.70
2022-11-04T03:26:48.899Z,23.30
2022-11-04T03:27:49.074Z,23.00
2022-11-04T03:28:49.224Z,23.60
2022-11-04T03:29:49.425Z,23.80
2022-11-04T03:30:49.575Z,21.80
2022-11-04T03:31:49.750Z,23.20
2022-11-04T03:32:49.919Z,21.00
2022-11-04T03:33:50.081Z,25.20
2022-11-04T03:34:50.253Z,25.30
2022-11-04T03:35:50.404Z,28.00
2022-11-04T03:36:50.563Z,23.60
2022-11-04T03:37:50.712Z,23.40
2022-11-04T03:38:50.880Z,22.50
2022-11-04T03:39:51.057Z,23.50
2022-11-04T03:40:51.227Z,26.30
2022-11-04T03:41:51.388Z,24.70
2022-11-04T03:42:51.544Z,23.10
2022-11-04T03:43:51.705Z,22.20
2022-11-04T03:44:51.880Z,23.40
2022-11-04T03:45:52.037Z,22.90
2022-11-04T03:46:52.216Z,32.50
2022-11-04T03:47:52.369Z,28.00
2022-11-04T03:48:52.528Z,27.00
2022-11-04T03:49:52.699Z,26.50
2022-11-04T03:50:52.860Z,23.30
2022-11-04T03:51:53.008Z,22.70
2022-11-04T03:52:53.168Z,22.60
2022-11-04T03:53:53.320Z,23.70
2022-11-04T03:54:53.494Z,28.10
2022-11-04T03:55:53.645Z,22.70
2022-11-04T03:56:53.805Z,25.30
2022-11-04T03:57:53.958Z,23.20
2022-11-04T03:58:54.138Z,24.50
2022-11-04T03:59:54.305Z,21.40
2022-11-04T04:00:54.514Z,22.10
2022-11-04T04:01:54.704Z,26.60
2022-11-04T04:02:54.768Z,22.60
2022-11-04T04:03:54.914Z,26.20
2022-11-04T04:04:55.109Z,24.20
2022-11-04T04:05:55.249Z,24.10
2022-11-04T04:06:55.330Z,26.30
2022-11-04T04:07:55.485Z,25.90
2022-11-04T04:08:55.644Z,22.60
2022-11-04T04:09:55.847Z,23.60
2022-11-04T04:10:55.903Z,23.40
2022-11-04T04:11:56.062Z,22.30
2022-11-04T04:12:56.210Z,25.20
2022-11-04T04:13:56.372Z,20.60
2022-11-04T04:14:56.548Z,24.10
2022-11-04T04:15:56.728Z,22.50
2022-11-04T04:16:56.921Z,22.70
2022-11-04T04:17:57.076Z,27.10
2022-11-04T04:18:58.656Z,22.00
2022-11-04T04:19:57.425Z,24.30
2022-11-04T04:20:57.564Z,24.50
2022-11-04T04:21:57.759Z,26.70
2022-11-04T04:22:57.901Z,24.30
2022-11-04T04:23:58.071Z,29.10
2022-11-04T04:24:58.292Z,25.30
2022-11-04T04:25:58.334Z,24.70
2022-11-04T04:26:58.503Z,23.80
2022-11-04T04:27:58.659Z,26.30
2022-11-04T04:28:58.819Z,24.50
2022-11-04T04:29:58.987Z,21.90
2022-11-04T04:31:00.435Z,24.50
2022-11-04T04:31:59.329Z,23.30
2022-11-04T04:33:01.999Z,25.10
2022-11-04T04:33:59.572Z,23.50
2022-11-04T04:34:59.724Z,25.00
2022-11-04T04:35:59.873Z,23.00
2022-11-04T04:37:00.099Z,26.30
2022-11-04T04:38:00.155Z,26.10
2022-11-04T04:39:00.328Z,25.70
2022-11-04T04:40:00.516Z,30.60
2022-11-04T04:41:00.679Z,25.50
2022-11-04T04:42:00.837Z,23.80
2022-11-04T04:43:00.997Z,27.10
2022-11-04T04:44:01.156Z,23.60
2022-11-04T04:45:01.335Z,26.60
2022-11-04T04:46:01.493Z,25.50
2022-11-04T04:47:01.690Z,25.40
2022-11-04T04:48:01.742Z,24.70
2022-11-04T04:49:01.908Z,24.20
2022-11-04T04:50:02.122Z,26.50
2022-11-04T04:51:02.248Z,25.10
2022-11-04T04:52:02.406Z,28.40
2022-11-04T04:53:02.573Z,23.30
2022-11-04T04:54:02.727Z,27.20
2022-11-04T04:55:02.913Z,24.40
2022-11-04T04:56:03.081Z,25.30
2022-11-04T04:57:03.237Z,24.30
2022-11-04T04:58:03.389Z,23.40
2022-11-04T04:59:03.551Z,24.80
2022-11-04T05:00:03.737Z,24.30
2022-11-04T05:01:03.842Z,25.40
2022-11-04T05:02:04.099Z,25.00
2022-11-04T05:03:04.090Z,24.80
2022-11-04T05:04:04.182Z,22.10
2022-11-04T05:05:04.428Z,24.90
2022-11-04T05:06:04.449Z,27.00
2022-11-04T05:07:04.638Z,24.30
2022-11-04T05:08:04.794Z,26.30
2022-11-04T05:09:04.958Z,24.50
2022-11-04T05:10:05.183Z,23.80
2022-11-04T05:11:05.310Z,28.00
2022-11-04T05:12:05.490Z,26.10
2022-11-04T05:13:05.668Z,23.50
2022-11-04T05:14:05.829Z,26.90
2022-11-04T05:15:06.023Z,23.10
2022-11-04T05:16:06.065Z,27.50
2022-11-04T05:17:06.217Z,27.20
2022-11-04T05:18:06.764Z,28.60
2022-11-04T05:19:06.587Z,26.80
2022-11-04T05:20:06.789Z,27.10
2022-11-04T05:21:06.946Z,24.70
2022-11-04T05:22:07.116Z,24.30
2022-11-04T05:23:07.266Z,22.80
2022-11-04T05:24:07.430Z,24.60
2022-11-04T05:25:07.609Z,24.90
2022-11-04T05:26:07.774Z,26.50
2022-11-04T05:27:07.961Z,22.50
2022-11-04T05:28:08.443Z,21.70
2022-11-04T05:29:08.335Z,23.60
2022-11-04T05:30:08.450Z,26.20
2022-11-04T05:31:08.507Z,26.80
2022-11-04T05:32:08.675Z,24.20
2022-11-04T05:33:09.174Z,25.40
2022-11-04T05:34:09.056Z,23.10
2022-11-04T05:35:09.138Z,23.90
2022-11-04T05:36:09.234Z,23.80
2022-11-04T05:37:09.288Z,25.00
2022-11-04T05:38:09.457Z,28.00
2022-11-04T05:39:09.630Z,27.50
2022-11-04T05:40:09.817Z,26.20
2022-11-04T05:41:10.014Z,24.00
2022-11-04T05:42:10.080Z,24.90
2022-11-04T05:43:10.643Z,26.60
2022-11-04T05:44:10.354Z,28.50
2022-11-04T05:45:10.532Z,25.10
2022-11-04T05:46:10.709Z,24.70
2022-11-04T05:47:10.930Z,25.80
2022-11-04T05:48:11.000Z,24.80
2022-11-04T05:49:11.171Z,24.60
2022-11-04T05:50:11.364Z,27.20
2022-11-04T05:51:11.543Z,28.20
2022-11-04T05:52:11.721Z,29.70
2022-11-04T05:53:12.346Z,26.80
2022-11-04T05:54:12.012Z,31.60
2022-11-04T05:55:12.190Z,25.30
2022-11-04T05:56:12.358Z,27.60
2022-11-04T05:57:12.508Z,23.60
2022-11-04T05:58:12.689Z,25.70
2022-11-04T05:59:12.849Z,25.00
2022-11-04T06:00:13.027Z,28.10
2022-11-04T06:01:13.310Z,27.80
2022-11-04T06:02:13.384Z,28.30
2022-11-04T06:03:16.239Z,30.30
2022-11-04T06:04:13.600Z,27.10
2022-11-04T06:05:13.805Z,27.70
2022-11-04T06:06:13.845Z,29.10
2022-11-04T06:07:13.994Z,26.10
2022-11-04T06:08:14.212Z,28.30
2022-11-04T06:09:14.277Z,29.00
2022-11-04T06:10:14.462Z,28.70
2022-11-04T06:11:14.622Z,28.90
2022-11-04T06:12:14.781Z,31.70
2022-11-04T06:13:14.944Z,26.30
2022-11-04T06:14:18.705Z,31.20
2022-11-04T06:15:15.623Z,28.00
2022-11-04T06:16:15.339Z,28.30
2022-11-04T06:17:15.576Z,27.90
2022-11-04T06:18:15.619Z,34.70
2022-11-04T06:19:16.346Z,29.20
2022-11-04T06:20:15.953Z,29.40
2022-11-04T06:21:16.103Z,31.10
2022-11-04T06:22:16.252Z,27.70
2022-11-04T06:23:16.422Z,25.50
2022-11-04T06:24:16.576Z,26.20
2022-11-04T06:25:16.773Z,29.50
2022-11-04T06:26:18.227Z,29.90
2022-11-04T06:27:16.970Z,27.50
2022-11-04T06:28:17.181Z,32.80
2022-11-04T06:29:17.228Z,28.90
2022-11-04T06:30:17.379Z,31.80
2022-11-04T06:31:17.531Z,30.00
2022-11-04T06:32:17.670Z,29.60
2022-11-04T06:33:17.830Z,30.70
2022-11-04T06:34:18.076Z,28.60
2022-11-04T06:35:18.112Z,31.10
2022-11-04T06:36:18.253Z,26.60
2022-11-04T06:37:18.405Z,28.30
2022-11-04T06:38:18.561Z,29.10
2022-11-04T06:39:18.720Z,27.20
2022-11-04T06:40:18.886Z,34.20
2022-11-04T06:41:19.046Z,28.20
2022-11-04T06:42:19.207Z,30.70
2022-11-04T06:43:19.369Z,28.20
2022-11-04T06:44:19.523Z,30.80
2022-11-04T06:45:19.709Z,29.70
2022-11-04T06:46:19.885Z,27.50
2022-11-04T06:47:24.571Z,29.60
2022-11-04T06:48:21.227Z,30.20
2022-11-04T06:49:20.378Z,26.90
2022-11-04T06:50:20.541Z,27.70
2022-11-04T06:51:20.703Z,31.10
2022-11-04T06:52:20.862Z,26.30
2022-11-04T06:53:21.027Z,32.00
2022-11-04T06:54:21.195Z,30.40
2022-11-04T06:55:21.392Z,31.80
2022-11-04T06:56:21.445Z,26.90
2022-11-04T06:57:21.590Z,32.20
2022-11-04T06:58:21.727Z,34.00
2022-11-04T06:59:21.898Z,32.50
2022-11-04T07:00:22.061Z,33.50
2022-11-04T07:01:22.652Z,32.60
2022-11-04T07:02:22.441Z,34.00
2022-11-04T07:03:22.444Z,31.80
2022-11-04T07:05:19.894Z,33.40
2022-11-04T07:06:19.955Z,33.90
2022-11-04T07:07:20.142Z,40.70
2022-11-04T07:08:20.349Z,38.50
2022-11-04T07:09:20.446Z,37.40
2022-11-04T07:10:20.618Z,41.80
2022-11-04T07:11:20.860Z,41.90
2022-11-04T07:12:20.887Z,40.60
2022-11-04T07:13:21.066Z,49.50
2022-11-04T07:14:21.254Z,47.90
2022-11-04T07:15:27.114Z,49.80
2022-11-04T07:16:22.625Z,54.30
2022-11-04T07:17:21.823Z,57.30
2022-11-04T07:18:21.996Z,60.80
2022-11-04T07:19:22.146Z,59.30
2022-11-04T07:20:22.313Z,59.30
2022-11-04T07:21:22.512Z,62.20
2022-11-04T07:22:22.770Z,64.40
2022-11-04T07:23:22.932Z,71.40
2022-11-04T07:24:23.070Z,65.50
2022-11-04T07:25:23.241Z,73.70
2022-11-04T07:26:23.270Z,64.00
2022-11-04T07:27:23.334Z,71.10
2022-11-04T07:28:23.501Z,66.40
2022-11-04T07:29:23.670Z,64.10
2022-11-04T07:30:23.899Z,75.70
2022-11-04T07:31:24.222Z,70.30
2022-11-04T07:32:24.204Z,66.60
2022-11-04T07:33:24.239Z,68.50
2022-11-04T07:34:24.539Z,72.20
2022-11-04T07:35:24.603Z,61.70
2022-11-04T07:36:24.799Z,65.00
2022-11-04T07:37:24.858Z,72.00
2022-11-04T07:38:25.000Z,63.70
2022-11-04T07:39:25.215Z,70.40
2022-11-04T07:40:25.665Z,68.40
2022-11-04T07:41:25.698Z,65.20
2022-11-04T07:42:25.701Z,69.80
2022-11-04T07:43:25.718Z,66.80
2022-11-04T07:44:26.051Z,64.30
2022-11-04T07:45:25.978Z,67.90
2022-11-04T07:46:26.168Z,66.00
2022-11-04T07:47:26.361Z,68.60
2022-11-04T07:48:26.518Z,71.10
2022-11-04T07:49:26.718Z,71.40
2022-11-04T07:50:26.926Z,76.70
2022-11-04T07:51:26.970Z,69.60
2022-11-04T07:52:27.029Z,66.20
2022-11-04T07:53:27.183Z,66.80
2022-11-04T07:54:27.344Z,67.70
2022-11-04T07:55:27.491Z,98.50
2022-11-04T07:56:27.678Z,91.70
2022-11-04T07:57:27.844Z,67.80
2022-11-04T07:58:28.009Z,68.00
2022-11-04T07:59:28.212Z,87.20
2022-11-04T08:00:28.322Z,71.90
2022-11-04T08:01:29.139Z,78.70
2022-11-04T08:02:33.962Z,65.20
2022-11-04T08:03:29.849Z,66.70
2022-11-04T08:04:28.923Z,68.10
2022-11-04T08:05:29.082Z,62.90
2022-11-04T08:06:29.302Z,60.10
2022-11-04T08:07:29.366Z,65.90
2022-11-04T08:08:29.558Z,56.90
2022-11-04T08:09:29.712Z,57.60
2022-11-04T08:10:29.883Z,59.30
2022-11-04T08:11:30.094Z,62.00
2022-11-04T08:12:30.208Z,57.90
2022-11-04T08:13:30.259Z,53.50
2022-11-04T08:14:30.414Z,55.50
2022-11-04T08:15:30.562Z,59.60
2022-11-04T08:16:34.316Z,57.10
2022-11-04T08:17:30.877Z,55.50
2022-11-04T08:18:31.121Z,56.30
2022-11-04T08:19:31.180Z,56.30
2022-11-04T08:20:31.331Z,52.70
2022-11-04T08:21:31.485Z,50.00
2022-11-04T08:22:33.132Z,52.20
2022-11-04T08:23:31.826Z,51.00
2022-11-04T08:24:32.001Z,52.00
2022-11-04T08:25:32.151Z,50.00
2022-11-04T08:26:32.308Z,48.10
2022-11-04T08:27:32.416Z,49.00
2022-11-04T08:28:32.582Z,48.00
2022-11-04T08:29:32.762Z,48.90
2022-11-04T08:30:32.788Z,50.30
2022-11-04T08:31:32.937Z,49.30
2022-11-04T08:32:33.073Z,49.40
2022-11-04T08:33:33.227Z,46.90
2022-11-04T08:34:33.363Z,48.20
2022-11-04T08:35:38.329Z,48.70
2022-11-04T08:36:34.651Z,43.60
2022-11-04T08:37:33.787Z,44.90
2022-11-04T08:38:34.451Z,48.90
2022-11-04T08:39:34.069Z,43.10
2022-11-04T08:40:34.102Z,41.00
2022-11-04T08:41:34.259Z,44.10
2022-11-04T08:42:34.399Z,41.90
2022-11-04T08:43:34.555Z,45.40
2022-11-04T08:44:34.705Z,39.30
2022-11-04T08:45:34.839Z,42.60
2022-11-04T08:46:35.016Z,40.40
2022-11-04T08:47:35.147Z,43.50
2022-11-04T08:48:35.279Z,35.50
2022-11-04T08:49:35.446Z,43.30
2022-11-04T08:50:35.678Z,40.60
2022-11-04T08:51:35.698Z,84.70
2022-11-04T08:52:35.842Z,44.90
2022-11-04T08:53:36.140Z,39.50
2022-11-04T08:54:36.185Z,43.20
2022-11-04T08:55:36.309Z,42.60
2022-11-04T08:56:36.469Z,39.30
2022-11-04T08:57:36.699Z,36.20
2022-11-04T08:58:36.745Z,36.70
2022-11-04T08:59:36.911Z,39.30
2022-11-04T09:00:37.055Z,35.80
2022-11-04T09:01:37.253Z,32.80
2022-11-04T09:02:37.552Z,36.00
2022-11-04T09:03:37.501Z,33.80
2022-11-04T09:04:37.542Z,37.60
2022-11-04T09:05:37.673Z,46.20
2022-11-04T09:06:37.866Z,36.70
2022-11-04T09:07:37.993Z,36.80
2022-11-04T09:08:38.122Z,42.50
2022-11-04T09:09:38.268Z,35.90
2022-11-04T09:10:38.409Z,40.00
2022-11-04T09:11:38.560Z,37.80
2022-11-04T09:12:38.705Z,30.80
2022-11-04T09:13:39.830Z,31.60
2022-11-04T09:14:38.994Z,38.00
2022-11-04T09:15:39.137Z,48.20
2022-11-04T09:16:39.288Z,38.40
2022-11-04T09:17:39.417Z,31.80
2022-11-04T09:18:39.540Z,32.00
2022-11-04T09:19:39.692Z,38.20
2022-11-04T09:20:39.857Z,38.80
2022-11-04T09:21:40.002Z,33.70
2022-11-04T09:22:44.675Z,31.90
2022-11-04T09:23:41.266Z,31.90
2022-11-04T09:24:40.428Z,31.60
2022-11-04T09:25:40.587Z,31.80
2022-11-04T09:26:40.770Z,31.60
2022-11-04T09:27:40.938Z,31.80
2022-11-04T09:28:41.078Z,32.30
2022-11-04T09:29:41.237Z,29.30
2022-11-04T09:30:41.397Z,28.70
2022-11-04T09:31:41.561Z,27.20
2022-11-04T09:32:41.711Z,27.70
2022-11-04T09:33:41.935Z,28.80
2022-11-04T09:34:41.992Z,30.40
2022-11-04T09:35:42.156Z,29.80
2022-11-04T09:36:42.291Z,28.00
2022-11-04T09:37:42.444Z,30.20
2022-11-04T09:38:42.612Z,26.30
2022-11-04T09:39:42.727Z,32.50
2022-11-04T09:40:42.864Z,27.10
2022-11-04T09:41:43.066Z,29.20
2022-11-04T09:42:43.088Z,26.30
2022-11-04T09:43:43.230Z,34.00
2022-11-04T09:45:06.903Z,24.90
2022-11-04T09:45:44.498Z,24.50
2022-11-04T09:46:43.633Z,24.80
2022-11-04T09:47:43.769Z,25.60
2022-11-04T09:48:43.908Z,26.50
2022-11-04T09:49:44.077Z,26.80
2022-11-04T09:50:44.237Z,24.40
2022-11-04T09:51:59.744Z,23.80
2022-11-04T09:52:45.493Z,24.50
2022-11-04T09:53:44.643Z,26.40
2022-11-04T09:54:47.494Z,24.50
2022-11-04T09:55:45.015Z,22.30
2022-11-04T09:56:45.168Z,25.30
2022-11-04T09:57:45.398Z,23.80
2022-11-04T09:58:45.448Z,22.60
2022-11-04T09:59:45.585Z,22.90
2022-11-04T10:00:45.808Z,19.80
2022-11-04T10:01:45.988Z,21.80
2022-11-04T10:02:46.085Z,25.20
2022-11-04T10:03:46.190Z,21.40
2022-11-04T10:04:46.345Z,21.50
2022-11-04T10:05:46.481Z,24.60
2022-11-04T10:06:46.662Z,21.60
2022-11-04T10:07:46.828Z,20.60
2022-11-04T10:08:46.991Z,25.10
2022-11-04T10:09:47.131Z,21.90
2022-11-04T10:10:47.284Z,21.60
2022-11-04T10:11:47.449Z,20.50
2022-11-04T10:12:47.628Z,19.80
2022-11-04T10:13:47.814Z,18.60
2022-11-04T10:14:47.982Z,20.70
2022-11-04T10:15:48.188Z,22.10
2022-11-04T10:16:48.239Z,20.80
2022-11-04T10:17:48.407Z,25.70
2022-11-04T10:18:48.563Z,19.60
2022-11-04T10:19:48.723Z,20.90
2022-11-04T10:20:48.890Z,20.50
2022-11-04T10:21:49.057Z,22.20
2022-11-04T10:22:49.243Z,21.70
2022-11-04T10:23:49.397Z,22.10
2022-11-04T10:24:49.590Z,21.00
2022-11-04T10:25:49.729Z,23.50
2022-11-04T10:26:49.909Z,23.90
2022-11-04T10:27:50.048Z,20.20
2022-11-04T10:28:50.211Z,20.50
2022-11-04T10:29:50.375Z,24.50
2022-11-04T10:30:50.520Z,22.10
2022-11-04T10:31:50.763Z,24.40
2022-11-04T10:32:50.756Z,23.20
2022-11-04T10:33:50.910Z,20.30
2022-11-04T10:34:51.081Z,21.00
2022-11-04T10:35:51.229Z,18.40
2022-11-04T10:36:51.379Z,21.50
2022-11-04T10:37:51.534Z,21.20
2022-11-04T10:38:51.675Z,18.50
2022-11-04T10:39:51.812Z,19.70
2022-11-04T10:40:51.942Z,17.90
2022-11-04T10:41:52.094Z,19.20
2022-11-04T10:42:52.262Z,17.50
2022-11-04T10:43:52.402Z,17.70
2022-11-04T10:44:52.543Z,21.00
2022-11-04T10:45:52.701Z,22.90
2022-11-04T10:46:52.863Z,17.00
2022-11-04T10:47:52.996Z,19.80
2022-11-04T10:48:53.152Z,21.70
2022-11-04T10:50:14.435Z,19.90
2022-11-04T10:50:54.379Z,17.70
2022-11-04T10:51:53.545Z,18.30
2022-11-04T10:52:53.686Z,17.70
2022-11-04T10:53:53.838Z,21.20
2022-11-04T10:54:53.983Z,19.70
2022-11-04T10:55:54.140Z,22.00
2022-11-04T10:56:54.387Z,20.20
2022-11-04T10:57:54.492Z,21.50
2022-11-04T10:58:54.632Z,25.00
2022-11-04T10:59:54.850Z,21.10
2022-11-04T11:00:54.935Z,24.80
2022-11-04T11:01:55.194Z,21.40
2022-11-04T11:02:55.180Z,23.20
2022-11-04T11:03:55.351Z,26.90
2022-11-04T11:04:55.466Z,27.10
2022-11-04T11:05:55.639Z,22.00
2022-11-04T11:06:55.816Z,20.20
2022-11-04T11:07:55.958Z,19.60
2022-11-04T11:08:56.103Z,20.10
2022-11-04T11:09:56.253Z,21.10
2022-11-04T11:10:56.386Z,21.80
2022-11-04T11:11:56.557Z,21.70
2022-11-04T11:12:56.700Z,24.90
2022-11-04T11:13:56.866Z,21.80
2022-11-04T11:14:57.016Z,21.30
2022-11-04T11:15:57.164Z,18.80
2022-11-04T11:16:57.330Z,20.90
2022-11-04T11:17:57.476Z,19.00
2022-11-04T11:18:57.636Z,19.40
2022-11-04T11:19:57.776Z,21.00
2022-11-04T11:20:57.936Z,20.50
2022-11-04T11:21:58.142Z,20.30
2022-11-04T11:23:04.465Z,20.30
2022-11-04T11:23:59.382Z,20.30
2022-11-04T11:24:58.535Z,23.40
2022-11-04T11:25:58.708Z,21.70
2022-11-04T11:26:58.888Z,21.70
2022-11-04T11:27:59.058Z,24.80
2022-11-04T11:28:59.636Z,18.60
2022-11-04T11:29:59.373Z,19.50
2022-11-04T11:30:59.515Z,20.80
2022-11-04T11:31:59.690Z,22.70
2022-11-04T11:32:59.833Z,24.20
2022-11-04T11:33:59.967Z,25.40
2022-11-04T11:35:00.101Z,21.40
2022-11-04T11:36:00.337Z,18.40
2022-11-04T11:37:00.395Z,24.30
2022-11-04T11:38:00.533Z,19.20
2022-11-04T11:39:00.666Z,23.40
2022-11-04T11:40:00.802Z,22.30
2022-11-04T11:41:23.838Z,21.00
2022-11-04T11:42:02.051Z,20.80
2022-11-04T11:43:01.182Z,23.90
2022-11-04T11:44:01.309Z,22.20
2022-11-04T11:45:01.442Z,23.50
2022-11-04T11:46:01.573Z,18.80
2022-11-04T11:47:01.730Z,20.20
2022-11-04T11:48:01.869Z,20.30
2022-11-04T11:49:01.999Z,21.90
2022-11-04T11:50:02.159Z,24.40
2022-11-04T11:51:02.311Z,25.90
2022-11-04T11:52:02.452Z,24.40
2022-11-04T11:53:02.606Z,25.70
2022-11-04T11:54:02.741Z,32.60
2022-11-04T11:55:02.876Z,25.00
2022-11-04T11:56:03.013Z,27.60
2022-11-04T11:57:22.467Z,25.70
2022-11-04T12:01:09.907Z,24.50
2022-11-04T12:02:04.705Z,26.80
2022-11-04T12:03:03.925Z,24.30
2022-11-04T12:06:20.634Z,25.00
2022-11-04T12:09:23.332Z,27.30
2022-11-04T12:10:10.012Z,24.30
2022-11-04T12:11:05.767Z,23.80
2022-11-04T12:12:04.923Z,23.40
2022-11-04T12:13:05.060Z,23.90
2022-11-04T12:14:05.257Z,25.40
2022-11-04T12:15:05.400Z,24.30
2022-11-04T12:16:05.528Z,23.00
2022-11-04T12:17:05.673Z,23.90
2022-11-04T12:18:05.836Z,22.60
2022-11-04T12:19:05.959Z,21.80
2022-11-04T12:20:11.729Z,21.60
2022-11-04T12:21:07.208Z,24.10
2022-11-04T12:22:06.349Z,25.40
2022-11-04T12:23:06.730Z,21.60
2022-11-04T12:24:06.623Z,22.10
2022-11-04T12:25:06.773Z,21.90
2022-11-04T12:26:06.934Z,19.20
2022-11-04T12:27:07.073Z,22.90
2022-11-04T12:28:07.592Z,21.50
2022-11-04T12:29:07.293Z,19.10
2022-11-04T12:30:07.407Z,22.50
2022-11-04T12:31:07.542Z,22.00
2022-11-04T12:32:07.681Z,21.50
2022-11-04T12:33:08.191Z,18.90
2022-11-04T12:34:07.932Z,26.30
2022-11-04T12:35:08.069Z,21.40
2022-11-04T12:36:08.217Z,21.20
2022-11-04T12:37:08.345Z,19.00
2022-11-04T12:38:08.491Z,20.00
2022-11-04T12:39:08.622Z,18.10
2022-11-04T12:40:08.764Z,19.10
2022-11-04T12:41:34.625Z,18.10
2022-11-04T12:42:31.328Z,20.30
2022-11-04T12:43:10.370Z,21.20
2022-11-04T12:44:09.254Z,20.40
2022-11-04T12:45:09.378Z,19.40
2022-11-04T12:46:09.520Z,19.10
2022-11-04T12:47:09.650Z,18.20
2022-11-04T12:48:09.818Z,16.10
2022-11-04T12:49:09.966Z,16.60
2022-11-04T12:50:10.100Z,18.20
2022-11-04T12:51:10.240Z,19.00
2022-11-04T12:52:10.399Z,20.60
2022-11-04T12:53:10.777Z,18.00
2022-11-04T12:54:10.700Z,18.40
2022-11-04T12:55:10.831Z,17.90
2022-11-04T12:56:10.977Z,18.40
2022-11-04T12:57:11.117Z,17.40
2022-11-04T12:58:11.279Z,20.00
2022-11-04T12:59:11.480Z,20.60
2022-11-04T13:00:11.534Z,19.10
2022-11-04T13:01:15.328Z,18.20
2022-11-04T13:02:11.921Z,20.20
2022-11-04T13:03:12.255Z,16.80